createdAt,value
2018-04-10T00:02:04.949Z,93.20
2018-04-10T00:04:32.470Z,93.40
2018-04-10T00:06:59.961Z,93.50
2018-04-10T00:09:27.496Z,93.50
2018-04-10T00:11:55.030Z,93.70
2018-04-10T00:14:23.315Z,93.50
2018-04-10T00:16:51.581Z,93.60
2018-04-10T00:19:19.105Z,93.60
2018-04-10T00:21:46.590Z,93.70
2018-04-10T00:24:14.109Z,93.70
2018-04-10T00:26:41.597Z,93.90
2018-04-10T00:29:09.883Z,94.50
2018-04-10T00:31:37.416Z,94.50
2018-04-10T00:34:04.908Z,94.70
2018-04-10T00:36:32.445Z,94.80
2018-04-10T00:38:59.929Z,95.00
2018-04-10T00:41:27.457Z,94.70
2018-04-10T00:43:54.938Z,94.70
2018-04-10T00:46:22.457Z,95.00
2018-04-10T00:48:49.958Z,95.10
2018-04-10T00:51:18.302Z,95.30
2018-04-10T00:53:45.789Z,95.30
2018-04-10T00:56:13.311Z,95.50
2018-04-10T00:58:40.809Z,95.70
2018-04-10T01:01:08.331Z,95.60
2018-04-10T01:03:36.591Z,95.90
2018-04-10T01:06:04.124Z,95.90
2018-04-10T01:08:31.615Z,96.00
2018-04-10T01:10:59.102Z,96.00
2018-04-10T01:13:26.621Z,96.10
2018-04-10T01:15:54.120Z,95.80
2018-04-10T01:18:22.894Z,95.50
2018-04-10T01:20:50.377Z,95.30
2018-04-10T01:23:17.905Z,95.30
2018-04-10T01:25:45.389Z,95.40
2018-04-10T01:28:12.917Z,95.50
2018-04-10T01:30:40.465Z,95.80
2018-04-10T01:33:07.986Z,96.20
2018-04-10T01:35:35.486Z,96.40
2018-04-10T01:38:03.012Z,96.40
2018-04-10T01:40:30.501Z,96.40
2018-04-10T01:42:58.037Z,96.30
2018-04-10T01:45:25.522Z,96.30
2018-04-10T01:47:53.045Z,96.60
2018-04-10T01:50:20.732Z,96.90
2018-04-10T01:52:48.601Z,97.50
2018-04-10T01:55:16.130Z,97.80
2018-04-10T01:57:43.621Z,98.10
2018-04-10T02:00:11.934Z,98.70
2018-04-10T02:02:39.439Z,98.70
2018-04-10T02:05:06.961Z,98.90
2018-04-10T02:07:35.247Z,99.50
2018-04-10T02:10:04.607Z,99.80
2018-04-10T02:12:32.098Z,99.80
2018-04-10T02:14:59.609Z,99.90
2018-04-10T02:17:27.113Z,99.90
2018-04-10T02:19:54.601Z,99.80
2018-04-10T02:22:22.135Z,99.50
2018-04-10T02:24:49.642Z,99.40
2018-04-10T02:27:17.158Z,99.50
2018-04-10T02:29:45.433Z,99.70
2018-04-10T02:32:12.980Z,99.70
2018-04-10T02:34:40.507Z,99.70
2018-04-10T02:37:08.757Z,99.90
2018-04-10T02:39:36.245Z,99.90
2018-04-10T02:42:03.774Z,99.90
2018-04-10T02:44:31.297Z,99.90
2018-04-10T02:46:59.673Z,99.90
2018-04-10T02:49:27.159Z,99.90
2018-04-10T02:51:54.733Z,99.70
2018-04-10T02:54:22.988Z,99.70
2018-04-10T02:56:50.521Z,99.70
2018-04-10T02:59:18.026Z,99.70
2018-04-10T03:01:45.564Z,99.60
2018-04-10T03:04:13.051Z,99.60
2018-04-10T03:06:40.576Z,99.90
2018-04-10T03:09:08.065Z,99.90
2018-04-10T03:11:35.581Z,99.90
2018-04-10T03:14:03.068Z,99.90
2018-04-10T03:16:30.609Z,99.90
2018-04-10T03:18:58.089Z,99.80
2018-04-10T03:21:25.609Z,99.70
2018-04-10T03:23:53.861Z,99.70
2018-04-10T03:26:21.392Z,99.70
2018-04-10T03:28:48.881Z,99.50
2018-04-10T03:31:16.362Z,99.40
2018-04-10T03:33:43.886Z,99.30
2018-04-10T03:36:12.137Z,99.40
2018-04-10T03:38:39.662Z,99.40
2018-04-10T03:41:07.142Z,99.60
2018-04-10T03:43:34.671Z,99.40
2018-04-10T03:46:02.802Z,99.70
2018-04-10T03:48:30.323Z,99.80
2018-04-10T03:50:57.817Z,99.60
2018-04-10T03:53:25.329Z,99.70
2018-04-10T03:55:52.877Z,99.90
2018-04-10T03:58:20.414Z,99.90
2018-04-10T04:00:47.939Z,99.90
2018-04-10T04:03:15.469Z,99.90
2018-04-10T04:05:42.971Z,99.90
2018-04-10T04:08:10.501Z,99.90
2018-04-10T04:10:38.769Z,99.90
2018-04-10T04:13:06.290Z,99.90
2018-04-10T04:15:33.823Z,99.90
2018-04-10T04:18:01.330Z,99.90
2018-04-10T04:20:40.808Z,99.90
2018-04-10T04:23:08.357Z,99.90
2018-04-10T04:25:35.921Z,99.90
2018-04-10T04:28:03.405Z,99.90
2018-04-10T04:30:30.917Z,99.90
2018-04-10T04:32:58.439Z,99.90
2018-04-10T04:35:26.738Z,99.90
2018-04-10T04:37:54.565Z,99.90
2018-04-10T04:40:22.093Z,99.90
2018-04-10T04:42:49.626Z,99.90
2018-04-10T04:45:17.129Z,99.90
2018-04-10T04:47:44.657Z,99.90
2018-04-10T04:50:12.151Z,99.90
2018-04-10T04:52:39.717Z,99.90
2018-04-10T04:55:07.201Z,99.90
2018-04-10T04:57:35.487Z,99.90
2018-04-10T05:00:03.737Z,99.90
2018-04-10T05:02:31.258Z,99.90
2018-04-10T05:04:59.509Z,99.90
2018-04-10T05:07:27.038Z,99.90
2018-04-10T05:09:54.529Z,99.90
2018-04-10T05:12:22.045Z,99.90
2018-04-10T05:14:49.537Z,99.90
2018-04-10T05:17:17.824Z,99.90
2018-04-10T05:19:46.074Z,99.90
2018-04-10T05:22:13.658Z,99.90
2018-04-10T05:24:41.155Z,99.90
2018-04-10T05:27:08.639Z,99.90
2018-04-10T05:29:36.141Z,99.90
2018-04-10T05:32:03.630Z,99.90
2018-04-10T05:34:31.161Z,99.90
2018-04-10T05:36:58.649Z,99.90
2018-04-10T05:39:26.177Z,99.90
2018-04-10T05:41:54.523Z,99.90
2018-04-10T05:44:22.074Z,99.90
2018-04-10T05:46:49.586Z,99.90
2018-04-10T05:49:17.117Z,99.90
2018-04-10T05:51:44.643Z,99.90
2018-04-10T05:54:12.195Z,99.90
2018-04-10T05:56:39.768Z,99.90
2018-04-10T05:59:07.293Z,99.90
2018-04-10T06:01:34.871Z,99.90
2018-04-10T06:04:02.398Z,99.90
2018-04-10T06:06:29.929Z,99.90
2018-04-10T06:08:57.439Z,99.90
2018-04-10T06:11:25.749Z,99.90
2018-04-10T06:13:54.008Z,99.90
2018-04-10T06:16:21.533Z,99.90
2018-04-10T06:18:49.026Z,99.90
2018-04-10T06:21:16.537Z,99.90
2018-04-10T06:23:44.022Z,99.90
2018-04-10T06:26:12.305Z,99.90
2018-04-10T06:28:39.803Z,99.90
2018-04-10T06:31:07.734Z,99.90
2018-04-10T06:33:35.214Z,99.90
2018-04-10T06:36:02.745Z,99.90
2018-04-10T06:38:30.309Z,99.90
2018-04-10T06:40:57.800Z,99.90
2018-04-10T06:43:25.328Z,99.90
2018-04-10T06:45:53.604Z,99.90
2018-04-10T06:48:21.913Z,99.90
2018-04-10T06:50:50.210Z,99.70
2018-04-10T06:53:17.731Z,99.70
2018-04-10T06:55:45.209Z,99.40
2018-04-10T06:58:12.733Z,99.10
2018-04-10T07:00:40.213Z,99.00
2018-04-10T07:03:07.736Z,98.70
2018-04-10T07:05:35.221Z,98.60
2018-04-10T07:08:02.747Z,98.10
2018-04-10T07:10:30.232Z,97.90
2018-04-10T07:12:57.786Z,97.30
2018-04-10T07:15:25.282Z,96.60
2018-04-10T07:17:52.772Z,95.70
2018-04-10T07:20:21.068Z,94.90
2018-04-10T07:22:49.329Z,94.60
2018-04-10T07:25:16.855Z,94.60
2018-04-10T07:27:44.390Z,94.20
2018-04-10T07:30:11.877Z,93.10
2018-04-10T07:32:39.374Z,91.40
2018-04-10T07:35:06.894Z,90.00
2018-04-10T07:37:34.389Z,88.50
2018-04-10T07:40:02.674Z,84.90
2018-04-10T07:42:30.929Z,85.60
2018-04-10T07:44:58.458Z,85.60
2018-04-10T07:47:25.973Z,86.00
2018-04-10T07:49:53.521Z,85.80
2018-04-10T07:52:21.009Z,84.30
2018-04-10T07:54:48.537Z,84.80
2018-04-10T07:57:16.023Z,84.90
2018-04-10T07:59:43.513Z,86.60
2018-04-10T08:02:11.037Z,87.10
2018-04-10T08:04:39.290Z,89.30
2018-04-10T08:07:06.813Z,89.20
2018-04-10T08:09:34.304Z,90.10
2018-04-10T08:12:01.821Z,90.50
2018-04-10T08:14:29.309Z,90.60
2018-04-10T08:16:56.841Z,90.40
2018-04-10T08:19:25.106Z,90.00
2018-04-10T08:21:52.630Z,90.40
2018-04-10T08:24:20.121Z,89.80
2018-04-10T08:26:47.773Z,89.90
2018-04-10T08:29:15.322Z,89.20
2018-04-10T08:31:42.846Z,87.60
2018-04-10T08:34:10.385Z,88.20
2018-04-10T08:36:37.955Z,87.60
2018-04-10T08:39:06.325Z,87.40
2018-04-10T08:41:33.813Z,87.20
2018-04-10T08:44:01.337Z,86.50
2018-04-10T08:46:28.834Z,85.80
2018-04-10T08:48:56.353Z,84.90
2018-04-10T08:51:24.601Z,78.40
2018-04-10T08:53:52.148Z,78.40
2018-04-10T08:56:19.635Z,76.70
2018-04-10T08:58:47.149Z,76.10
2018-04-10T09:01:15.405Z,72.30
2018-04-10T09:03:42.927Z,72.30
2018-04-10T09:06:10.405Z,68.70
2018-04-10T09:08:37.932Z,69.90
2018-04-10T09:11:05.414Z,69.20
2018-04-10T09:13:32.933Z,69.00
2018-04-10T09:16:00.694Z,68.00
2018-04-10T09:18:28.243Z,67.40
2018-04-10T09:20:56.513Z,65.20
2018-04-10T09:23:23.993Z,65.10
2018-04-10T09:25:51.510Z,65.00
2018-04-10T09:28:19.002Z,63.50
2018-04-10T09:30:46.498Z,62.60
2018-04-10T09:33:14.022Z,62.30
2018-04-10T09:35:41.542Z,60.50
2018-04-10T09:38:09.805Z,55.70
2018-04-10T09:40:37.321Z,55.70
2018-04-10T09:43:05.571Z,53.70
2018-04-10T09:45:33.089Z,53.70
2018-04-10T09:48:00.586Z,54.20
2018-04-10T09:50:28.118Z,54.40
2018-04-10T09:52:55.677Z,56.70
2018-04-10T09:55:23.207Z,57.60
2018-04-10T09:57:50.685Z,57.40
2018-04-10T10:00:23.786Z,59.30
2018-04-10T10:02:51.270Z,60.40
2018-04-10T10:05:18.761Z,61.60
2018-04-10T10:07:46.279Z,63.20
2018-04-10T10:10:13.765Z,65.50
2018-04-10T10:12:41.331Z,63.40
2018-04-10T10:15:08.799Z,62.30
2018-04-10T10:17:36.331Z,61.40
2018-04-10T10:20:03.817Z,62.20
2018-04-10T10:22:31.416Z,65.50
2018-04-10T10:24:58.902Z,65.30
2018-04-10T10:27:26.429Z,65.90
2018-04-10T10:29:54.697Z,65.10
2018-04-10T10:32:22.215Z,65.10
2018-04-10T10:34:49.703Z,65.10
2018-04-10T10:37:17.230Z,66.20
2018-04-10T10:39:45.488Z,64.90
2018-04-10T10:42:13.006Z,65.00
2018-04-10T10:44:41.293Z,65.30
2018-04-10T10:47:08.860Z,65.30
2018-04-10T10:49:36.317Z,65.70
2018-04-10T10:52:03.807Z,64.90
2018-04-10T10:54:31.349Z,64.90
2018-04-10T10:56:59.622Z,65.50
2018-04-10T10:59:27.157Z,65.50
2018-04-10T11:01:54.673Z,63.80
2018-04-10T11:04:22.213Z,65.30
2018-04-10T11:06:49.701Z,65.90
2018-04-10T11:09:17.217Z,66.20
2018-04-10T11:11:45.465Z,66.00
2018-04-10T11:14:13.063Z,65.90
2018-04-10T11:16:41.329Z,67.30
2018-04-10T11:19:08.863Z,66.90
2018-04-10T11:21:36.367Z,67.10
2018-04-10T11:24:03.877Z,67.30
2018-04-10T11:26:31.373Z,67.10
2018-04-10T11:28:58.893Z,66.60
2018-04-10T11:31:26.374Z,67.10
2018-04-10T11:33:53.917Z,65.60
2018-04-10T11:36:21.401Z,64.80
2018-04-10T11:38:48.929Z,61.60
2018-04-10T11:41:16.410Z,60.00
2018-04-10T11:43:43.937Z,59.90
2018-04-10T11:46:11.431Z,58.60
2018-04-10T11:48:38.929Z,56.50
2018-04-10T11:51:06.450Z,55.30
2018-04-10T11:53:33.933Z,53.90
2018-04-10T11:56:01.471Z,54.30
2018-04-10T11:58:28.949Z,53.10
2018-04-10T12:00:56.482Z,50.30
2018-04-10T12:03:23.985Z,50.10
2018-04-10T12:05:51.515Z,50.90
2018-04-10T12:08:19.005Z,52.00
2018-04-10T12:10:46.525Z,52.50
2018-04-10T12:13:14.009Z,51.30
2018-04-10T12:15:50.317Z,50.10
2018-04-10T12:18:33.853Z,50.50
2018-04-10T12:21:01.527Z,49.70
2018-04-10T12:23:29.023Z,49.40
2018-04-10T12:25:56.533Z,45.80
2018-04-10T12:28:24.013Z,46.40
2018-04-10T12:30:51.525Z,47.20
2018-04-10T12:33:19.018Z,47.70
2018-04-10T12:35:46.530Z,47.50
2018-04-10T12:38:14.089Z,47.60
2018-04-10T12:40:41.625Z,47.50
2018-04-10T12:43:09.176Z,47.50
2018-04-10T12:45:36.686Z,47.10
2018-04-10T12:48:04.224Z,47.00
2018-04-10T12:50:31.717Z,47.70
2018-04-10T12:52:59.244Z,48.00
2018-04-10T12:55:27.502Z,48.20
2018-04-10T12:57:55.028Z,48.20
2018-04-10T13:00:22.518Z,47.60
2018-04-10T13:02:50.047Z,47.50
2018-04-10T13:05:17.573Z,47.60
2018-04-10T13:07:45.089Z,47.10
2018-04-10T13:10:13.350Z,48.50
2018-04-10T13:12:40.909Z,48.50
2018-04-10T13:15:08.447Z,48.60
2018-04-10T13:17:35.965Z,48.60
2018-04-10T13:20:03.475Z,50.30
2018-04-10T13:22:30.985Z,49.80
2018-04-10T13:24:58.509Z,49.70
2018-04-10T13:27:26.763Z,50.00
2018-04-10T13:29:54.281Z,49.90
2018-04-10T13:32:21.756Z,50.70
2018-04-10T13:34:49.278Z,50.40
2018-04-10T13:37:16.773Z,50.30
2018-04-10T13:39:44.305Z,50.40
2018-04-10T13:42:11.793Z,49.90
2018-04-10T13:44:39.317Z,49.90
2018-04-10T13:47:06.841Z,49.20
2018-04-10T13:49:34.378Z,48.40
2018-04-10T13:52:01.856Z,48.50
2018-04-10T13:54:29.387Z,48.10
2018-04-10T13:56:57.089Z,47.70
2018-04-10T13:59:24.625Z,47.50
2018-04-10T14:01:52.900Z,46.20
2018-04-10T14:04:20.404Z,46.10
2018-04-10T14:06:47.946Z,45.70
2018-04-10T14:09:16.220Z,47.90
2018-04-10T14:11:43.763Z,47.80
2018-04-10T14:14:11.271Z,46.80
2018-04-10T14:16:38.775Z,47.10
2018-04-10T14:19:06.257Z,48.10
2018-04-10T14:21:33.825Z,47.30
2018-04-10T14:24:01.734Z,46.80
2018-04-10T14:26:29.253Z,47.10
2018-04-10T14:28:56.740Z,47.20
2018-04-10T14:31:24.338Z,47.20
2018-04-10T14:33:51.929Z,48.40
2018-04-10T14:36:19.562Z,49.20
2018-04-10T14:38:47.062Z,48.60
2018-04-10T14:41:14.666Z,48.10
2018-04-10T14:43:42.177Z,48.40
2018-04-10T14:46:09.811Z,48.60
2018-04-10T14:48:37.658Z,48.70
2018-04-10T14:51:05.371Z,48.90
2018-04-10T14:53:32.934Z,48.30
2018-04-10T14:56:00.450Z,48.20
2018-04-10T14:58:40.893Z,48.40
2018-04-10T15:01:08.689Z,49.20
2018-04-10T15:03:37.096Z,50.10
2018-04-10T15:06:04.680Z,49.40
2018-04-10T15:08:32.980Z,49.90
2018-04-10T15:11:00.463Z,49.20
2018-04-10T15:13:28.008Z,50.00
2018-04-10T15:15:55.515Z,50.70
2018-04-10T15:18:23.046Z,50.60
2018-04-10T15:20:50.565Z,50.30
2018-04-10T15:23:18.082Z,50.40
2018-04-10T15:25:46.330Z,51.40
2018-04-10T15:28:13.854Z,51.40
2018-04-10T15:30:41.411Z,50.80
2018-04-10T15:33:09.742Z,50.70
2018-04-10T15:35:37.271Z,50.70
2018-04-10T15:38:04.922Z,50.40
2018-04-10T15:40:32.485Z,50.60
2018-04-10T15:43:00.131Z,51.20
2018-04-10T15:45:27.625Z,51.10
2018-04-10T15:47:55.239Z,51.00
2018-04-10T15:50:22.762Z,51.10
2018-04-10T15:52:52.664Z,51.00
2018-04-10T15:55:20.199Z,51.00
2018-04-10T15:57:47.694Z,51.30
2018-04-10T16:00:15.217Z,51.30
2018-04-10T16:02:42.822Z,51.50
2018-04-10T16:05:10.342Z,51.60
2018-04-10T16:07:38.056Z,51.70
2018-04-10T16:10:05.679Z,51.20
2018-04-10T16:12:33.185Z,51.80
2018-04-10T16:15:00.708Z,51.70
2018-04-10T16:17:28.358Z,52.20
2018-04-10T16:19:56.668Z,52.60
2018-04-10T16:22:24.929Z,52.90
2018-04-10T16:24:52.549Z,52.90
2018-04-10T16:27:20.032Z,54.10
2018-04-10T16:29:47.855Z,54.90
2018-04-10T16:32:15.369Z,56.20
2018-04-10T16:34:42.988Z,56.60
2018-04-10T16:37:10.649Z,57.10
2018-04-10T16:39:38.313Z,57.20
2018-04-10T16:42:11.550Z,57.80
2018-04-10T16:44:39.223Z,57.80
2018-04-10T16:47:06.841Z,58.10
2018-04-10T16:49:34.393Z,58.40
2018-04-10T16:52:01.969Z,58.50
2018-04-10T16:54:30.229Z,59.80
2018-04-10T16:56:57.747Z,59.80
2018-04-10T16:59:25.272Z,60.60
2018-04-10T17:01:52.762Z,61.30
2018-04-10T17:04:20.258Z,62.50
2018-04-10T17:06:47.773Z,62.50
2018-04-10T17:09:26.746Z,62.60
2018-04-10T17:11:54.338Z,64.00
2018-04-10T17:14:21.980Z,66.20
2018-04-10T17:16:49.569Z,67.70
2018-04-10T17:19:17.149Z,74.70
2018-04-10T17:21:45.525Z,80.90
2018-04-10T17:24:13.910Z,83.60
2018-04-10T17:26:41.488Z,83.60
2018-04-10T17:29:09.425Z,85.60
2018-04-10T17:31:37.848Z,87.10
2018-04-10T17:34:06.347Z,88.30
2018-04-10T17:36:33.963Z,89.50
2018-04-10T17:39:01.591Z,90.70
2018-04-10T17:41:29.137Z,91.20
2018-04-10T17:43:56.701Z,91.60
2018-04-10T17:46:24.285Z,92.10
2018-04-10T17:48:51.790Z,92.70
2018-04-10T17:51:19.277Z,93.00
2018-04-10T17:53:47.569Z,93.00
2018-04-10T17:56:15.833Z,93.30
2018-04-10T17:58:43.365Z,93.70
2018-04-10T18:01:10.920Z,93.30
2018-04-10T18:03:38.489Z,93.60
2018-04-10T18:06:06.725Z,94.10
2018-04-10T18:08:34.238Z,94.10
2018-04-10T18:11:01.744Z,94.40
2018-04-10T18:13:29.269Z,94.70
2018-04-10T18:15:58.404Z,94.70
2018-04-10T18:18:25.936Z,94.70
2018-04-10T18:20:53.419Z,94.90
2018-04-10T18:23:20.952Z,95.00
2018-04-10T18:25:48.432Z,95.30
2018-04-10T18:28:15.954Z,95.40
2018-04-10T18:30:43.468Z,95.30
2018-04-10T18:33:10.990Z,95.20
2018-04-10T18:35:38.482Z,95.20
2018-04-10T18:38:06.038Z,95.50
2018-04-10T18:40:33.549Z,95.70
2018-04-10T18:43:05.646Z,95.90
2018-04-10T18:45:33.180Z,96.10
2018-04-10T18:48:00.685Z,96.00
2018-04-10T18:50:28.237Z,96.10
2018-04-10T18:52:55.726Z,96.20
2018-04-10T18:55:23.272Z,96.40
2018-04-10T18:57:51.569Z,97.00
2018-04-10T19:00:19.130Z,97.10
2018-04-10T19:02:46.610Z,98.70
2018-04-10T19:05:14.121Z,99.90
2018-04-10T19:07:41.605Z,99.90
2018-04-10T19:10:09.126Z,99.90
2018-04-10T19:12:36.640Z,99.90
2018-04-10T19:15:04.173Z,99.90
2018-04-10T19:17:31.804Z,99.90
2018-04-10T19:20:00.123Z,99.90
2018-04-10T19:22:27.618Z,99.90
2018-04-10T19:24:55.125Z,99.90
2018-04-10T19:27:22.709Z,99.90
2018-04-10T19:29:51.057Z,99.90
2018-04-10T19:32:18.635Z,99.90
2018-04-10T19:34:46.124Z,99.90
2018-04-10T19:37:14.435Z,99.90
2018-04-10T19:39:41.930Z,99.90
2018-04-10T19:42:09.454Z,99.90
2018-04-10T19:44:36.958Z,99.90
2018-04-10T19:47:04.491Z,99.90
2018-04-10T19:49:32.736Z,99.90
2018-04-10T19:52:00.269Z,99.90
2018-04-10T19:54:27.770Z,99.90
2018-04-10T19:56:55.357Z,99.90
2018-04-10T19:59:22.854Z,99.90
2018-04-10T20:01:50.404Z,99.90
2018-04-10T20:04:19.588Z,99.90
2018-04-10T20:06:47.118Z,99.90
2018-04-10T20:09:14.653Z,99.90
2018-04-10T20:11:42.174Z,99.90
2018-04-10T20:14:10.446Z,99.90
2018-04-10T20:16:37.968Z,99.90
2018-04-10T20:19:06.250Z,99.90
2018-04-10T20:21:33.764Z,99.90
2018-04-10T20:24:01.317Z,99.90
2018-04-10T20:26:28.894Z,99.90
2018-04-10T20:28:57.118Z,99.90
2018-04-10T20:31:24.634Z,99.90
2018-04-10T20:33:52.241Z,99.90
2018-04-10T20:36:19.769Z,99.90
2018-04-10T20:38:47.313Z,99.90
2018-04-10T20:41:14.846Z,99.90
2018-04-10T20:43:42.377Z,99.90
2018-04-10T20:46:10.623Z,99.90
2018-04-10T20:48:38.145Z,99.90
2018-04-10T20:51:06.426Z,99.90
2018-04-10T20:53:34.717Z,99.90
2018-04-10T20:56:02.229Z,99.90
2018-04-10T20:58:29.761Z,99.90
2018-04-10T21:00:58.010Z,99.90
2018-04-10T21:03:25.565Z,99.90
2018-04-10T21:05:53.054Z,99.90
2018-04-10T21:08:20.589Z,99.90
2018-04-10T21:10:48.177Z,99.90
2018-04-10T21:13:15.875Z,99.90
2018-04-10T21:15:43.431Z,99.90
2018-04-10T21:18:10.923Z,99.90
2018-04-10T21:20:38.458Z,99.90
2018-04-10T21:23:05.953Z,99.90
2018-04-10T21:25:33.480Z,99.90
2018-04-10T21:28:01.729Z,99.90
2018-04-10T21:30:29.229Z,99.90
2018-04-10T21:32:57.473Z,99.90
2018-04-10T21:35:25.005Z,99.90
2018-04-10T21:37:52.505Z,99.90
2018-04-10T21:40:20.031Z,99.90
2018-04-10T21:42:54.018Z,99.90
2018-04-10T21:45:21.551Z,99.90
2018-04-10T21:47:49.033Z,99.90
2018-04-10T21:50:16.565Z,99.90
2018-04-10T21:52:44.047Z,99.90
2018-04-10T21:55:11.576Z,99.90
2018-04-10T21:57:39.062Z,99.90
2018-04-10T22:00:06.545Z,99.90
2018-04-10T22:02:34.086Z,99.90
2018-04-10T22:05:01.573Z,99.90
2018-04-10T22:07:29.093Z,99.90
2018-04-10T22:09:56.577Z,99.90
2018-04-10T22:12:24.114Z,99.90
2018-04-10T22:14:52.417Z,99.90
2018-04-10T22:17:20.710Z,99.90
2018-04-10T22:19:48.961Z,99.90
2018-04-10T22:22:16.488Z,99.90
2018-04-10T22:24:43.966Z,99.90
2018-04-10T22:27:11.497Z,99.90
2018-04-10T22:29:38.989Z,99.90
2018-04-10T22:32:06.478Z,99.90
2018-04-10T22:34:33.970Z,99.90
2018-04-10T22:37:01.455Z,99.90
2018-04-10T22:39:28.966Z,99.90
2018-04-10T22:41:56.454Z,99.90
2018-04-10T22:44:23.978Z,99.90
2018-04-10T22:46:51.462Z,99.90
2018-04-10T22:49:18.981Z,99.90
2018-04-10T22:51:46.465Z,99.90
2018-04-10T22:54:14.842Z,99.90
2018-04-10T22:56:42.370Z,99.90
2018-04-10T22:59:09.882Z,99.90
2018-04-10T23:01:37.382Z,99.90
2018-04-10T23:04:05.686Z,99.90
2018-04-10T23:06:33.196Z,99.90
2018-04-10T23:09:00.683Z,99.90
2018-04-10T23:11:28.209Z,99.90
2018-04-10T23:13:56.462Z,99.90
2018-04-10T23:16:23.991Z,99.90
2018-04-10T23:18:51.485Z,99.90
2018-04-10T23:21:19.011Z,99.90
2018-04-10T23:23:46.498Z,99.90
2018-04-10T23:26:14.012Z,99.90
2018-04-10T23:28:41.495Z,99.90
2018-04-10T23:31:09.022Z,99.90
2018-04-10T23:33:36.513Z,99.90
2018-04-10T23:36:04.037Z,99.90
2018-04-10T23:38:31.521Z,99.90
2018-04-10T23:40:59.427Z,99.90
2018-04-10T23:43:27.679Z,99.90
2018-04-10T23:45:55.165Z,99.90
2018-04-10T23:48:22.695Z,99.90
2018-04-10T23:50:50.277Z,99.90
2018-04-10T23:53:17.845Z,99.90
2018-04-10T23:55:45.322Z,99.90
2018-04-10T23:58:12.835Z,99.90
